METAR Data
IDs: Format: Raw Decoded Include TAF

Data at: 1713 UTC 16 Oct 2021

KGVT 161655Z AUTO 36010KT 10SM CLR 20/01 A3039 RMK AO2 P0001 TSNO T01950011
KGVT 161635Z AUTO 02010G16KT 10SM CLR 19/01 A3039 RMK AO2 P0001 TSNO T01940011
KGVT 161615Z AUTO 36007KT 10SM CLR 19/03 A3038 RMK AO2 TSNO T01890032
KGVT 161555Z AUTO 01010KT 10SM CLR 18/04 A3038 RMK AO2 TSNO T01840037
KGVT 161535Z AUTO 36008KT 10SM CLR 18/05 A3038 RMK AO2 TSNO T01750048
KGVT 161515Z AUTO 36007KT 10SM CLR 17/06 A3038 RMK AO2 TSNO T01660056
KGVT 161455Z AUTO 01005KT 10SM CLR 15/07 A3038 RMK AO2 TSNO T01550073
KGVT 161435Z AUTO 35005KT 10SM CLR 14/07 A3038 RMK AO2 TSNO T01420075
KGVT 161415Z AUTO 35006KT 10SM CLR 13/08 A3037 RMK AO2 TSNO T01290076
KGVT 161355Z AUTO 35006KT 10SM CLR 12/08 A3036 RMK AO2 TSNO T01180077
KGVT 161335Z AUTO 35006KT 10SM CLR 11/07 A3035 RMK AO2 TSNO T01060074
KGVT 161315Z AUTO 35006KT 10SM CLR 10/07 A3034 RMK AO2 TSNO T00950072
KGVT 161255Z AUTO 34005KT 10SM CLR 08/06 A3034 RMK AO2 TSNO T00840064
KGVT 161235Z AUTO 35006KT 10SM CLR 08/06 A3033 RMK AO2 TSNO T00810060
KGVT 161215Z AUTO 34006KT 10SM CLR 08/06 A3033 RMK AO2 TSNO T00850059
KGVT 161155Z AUTO 34006KT 10SM CLR 09/06 A3033 RMK AO2 TSNO T00900061 10128 20089 70001
KGVT 161135Z AUTO 33006KT 10SM CLR 09/06 A3031 RMK AO2 TSNO T00950061
KGVT 161115Z AUTO 32004KT 10SM CLR 10/06 A3031 RMK AO2 TSNO T00960064
KGVT 161055Z AUTO 32004KT 10SM CLR 10/07 A3030 RMK AO2 TSNO T00960065
KGVT 161035Z AUTO 32005KT 10SM CLR 10/07 A3030 RMK AO2 TSNO T00980067
KGVT 161015Z AUTO 32005KT 10SM CLR 10/07 A3030 RMK AO2 TSNO T01000067
KGVT 160955Z AUTO 32005KT 10SM CLR 10/07 A3030 RMK AO2 TSNO T01040069
KGVT 160935Z AUTO 32004KT 10SM CLR 10/07 A3029 RMK AO2 TSNO T01000070
KGVT 160915Z AUTO 33004KT 10SM CLR 10/07 A3029 RMK AO2 TSNO T01040072
KGVT 160855Z AUTO 32006KT 10SM CLR 11/07 A3029 RMK AO2 TSNO T01060074
KGVT 160835Z AUTO 32004KT 10SM CLR 11/07 A3028 RMK AO2 TSNO T01110074
KGVT 160815Z AUTO 33004KT 10SM CLR 11/07 A3029 RMK AO2 TSNO T01100073
KGVT 160755Z AUTO 33004KT 10SM CLR 11/07 A3029 RMK AO2 TSNO T01050074
KGVT 160735Z AUTO 00000KT 10SM CLR 10/07 A3028 RMK AO2 TSNO T01040074
KGVT 160715Z AUTO 00000KT 10SM CLR 11/08 A3028 RMK AO2 TSNO T01060078
KGVT 160655Z AUTO 32004KT 10SM CLR 10/08 A3028 RMK AO2 TSNO T01050078
KGVT 160635Z AUTO 00000KT 10SM CLR 10/08 A3028 RMK AO2 TSNO T01020078
KGVT 160615Z AUTO 00000KT 10SM CLR 11/07 A3027 RMK AO2 TSNO T01080073
KGVT 160555Z AUTO 34003KT 10SM CLR 13/07 A3026 RMK AO2 TSNO T01280072 10195 20121
KGVT 160535Z AUTO 35005KT 10SM CLR 13/07 A3026 RMK AO2 TSNO T01270069
KGVT 160515Z AUTO 34005KT 10SM CLR 12/07 A3025 RMK AO2 TSNO T01240070
KGVT 160455Z AUTO 33005KT 10SM CLR 13/07 A3025 RMK AO2 TSNO T01280070
KGVT 160435Z AUTO 34005KT 10SM CLR 14/07 A3024 RMK AO2 TSNO T01360068
KGVT 160415Z AUTO 34006KT 10SM CLR 14/07 A3023 RMK AO2 TSNO T01400066
KGVT 160355Z AUTO 34009KT 10SM CLR 15/07 A3022 RMK AO2 TSNO T01450065
KGVT 160335Z AUTO 34008KT 10SM CLR 14/07 A3021 RMK AO2 TSNO T01410067
KGVT 160315Z AUTO 35006KT 10SM CLR 14/07 A3021 RMK AO2 TSNO T01400070
KGVT 160255Z AUTO 34007KT 10SM CLR 14/07 A3020 RMK AO2 TSNO T01450070
KGVT 160235Z AUTO 33008KT 10SM CLR 15/07 A3019 RMK AO2 TSNO T01540073
KGVT 160215Z AUTO 33007KT 10SM CLR 16/07 A3019 RMK AO2 TSNO T01580073
KGVT 160155Z AUTO 34008KT 10SM CLR 16/08 A3018 RMK AO2 TSNO T01650076
KGVT 160135Z AUTO 33007KT 10SM CLR 16/08 A3016 RMK AO2 TSNO T01600082
KGVT 160115Z AUTO 33006KT 10SM CLR 16/08 A3015 RMK AO2 TSNO T01650080
KGVT 160055Z AUTO 33007KT 10SM CLR 17/08 A3014 RMK AO2 TSNO T01730076
KGVT 160035Z AUTO 34009KT 10SM CLR 18/07 A3013 RMK AO2 TSNO T01820074
KGVT 160015Z AUTO 34011KT 10SM CLR 19/08 A3013 RMK AO2 TSNO T01910075
KGVT 152355Z AUTO 33012KT 10SM CLR 20/08 A3011 RMK AO2 TSNO T01970078 10267 20196 402760196
KGVT 152335Z AUTO 33015G18KT 10SM CLR 20/08 A3010 RMK AO2 TSNO T02040085
KGVT 152315Z AUTO 35016G25KT 10SM CLR 21/09 A3009 RMK AO2 TSNO T02120092
KGVT 152255Z AUTO 35016G21KT 10SM CLR 22/10 A3008 RMK AO2 TSNO T02200099
KGVT 152235Z AUTO 33015G20KT 10SM CLR 23/10 A3007 RMK AO2 TSNO T02250102
KGVT 152215Z AUTO 34016G23KT 10SM CLR 23/10 A3006 RMK AO2 TSNO T02260102
KGVT 152155Z AUTO 34017G24KT 10SM CLR 23/11 A3006 RMK AO2 TSNO T02280107
KGVT 152135Z AUTO 32017G24KT 10SM SCT041 23/12 A3005 RMK AO2 TSNO T02340122
KGVT 152115Z AUTO 32015G23KT 10SM OVC037 23/14 A3004 RMK AO2 TSNO T02320138
KGVT 152055Z AUTO 34013KT 10SM OVC030 23/15 A3004 RMK AO2 TSNO T02270149
KGVT 152035Z AUTO 32012G21KT 10SM BKN026 23/16 A3003 RMK AO2 TSNO T02300159
KGVT 152015Z AUTO 33012G23KT 10SM OVC022 22/16 A3002 RMK AO2 TSNO T02200163
KGVT 151955Z AUTO 32016G24KT 10SM OVC022 22/17 A3002 RMK AO2 TSNO T02200172
KGVT 151935Z AUTO 31013G20KT 10SM OVC022 23/18 A3000 RMK AO2 TSNO T02290177
KGVT 151915Z AUTO 32015G22KT 10SM OVC024 23/18 A2999 RMK AO2 TSNO T02330179
KGVT 151855Z AUTO 32014G22KT 10SM BKN026 BKN041 25/18 A2999 RMK AO2 TSNO T02470183
KGVT 151835Z AUTO 32017G22KT 10SM SCT024 SCT034 BKN041 25/18 A2998 RMK AO2 TSNO T02470183
KGVT 151815Z AUTO 31015G20KT 10SM SCT024 BKN034 BKN043 25/19 A2998 RMK AO2 TSNO T02510190
KGVT 151755Z AUTO 31018G24KT 10SM SCT027 BKN036 BKN045 26/20 A2997 RMK AO2 TSNO T02620196 10276 20220 60001
KGVT 151735Z AUTO 29013KT 10SM SCT027 BKN038 26/19 A2996 RMK AO2 TSNO T02620193
KGVT 151715Z AUTO 27013KT 10SM SCT021 BKN029 BKN037 27/20 A2996 RMK AO2 TSNO T02670197
KGVT 151655Z AUTO 27013KT 10SM SCT018 BKN026 OVC034 25/20 A2996 RMK AO2 TSNO T02530204
KGVT 151635Z AUTO 27010KT 10SM BKN014 BKN022 OVC030 25/21 A2996 RMK AO2 TSNO T02490208
KGVT 151615Z AUTO 26010KT 10SM BKN014 BKN020 OVC026 25/21 A2995 RMK AO2 TSNO T02460211
KGVT 151555Z AUTO 23008KT 10SM BKN012 BKN018 OVC024 24/21 A2995 RMK AO2 TSNO T02380213
KGVT 151535Z AUTO 22010G15KT 10SM OVC010 23/21 A2994 RMK AO2 TSNO T02320212
KGVT 151515Z AUTO 23007KT 10SM OVC010 23/21 A2994 RMK AO2 TSNO T02320213
KGVT 151455Z AUTO 22009KT 10SM OVC010 23/21 A2993 RMK AO2 P0001 TSNO T02320213 60001
KGVT 151435Z AUTO 21008KT 10SM OVC010 23/21 A2992 RMK AO2 P0001 TSNO T02320215
KGVT 151415Z AUTO 20009KT 10SM OVC008 23/22 A2992 RMK AO2 TSNO T02290215
KGVT 151355Z AUTO 20009KT 10SM OVC008 23/22 A2991 RMK AO2 TSNO T02270215
KGVT 151335Z AUTO 19010KT 10SM OVC006 22/21 A2990 RMK AO2 TSNO T02250215
KGVT 151315Z AUTO 18010KT 10SM OVC006 22/21 A2989 RMK AO2 TSNO T02240215
KGVT 151255Z AUTO 19010KT 10SM OVC006 22/21 A2989 RMK AO2 TSNO T02230214
KGVT 151235Z AUTO 19010KT 10SM OVC006 22/21 A2988 RMK AO2 TSNO T02220214
KGVT 151215Z AUTO 19011KT 10SM OVC004 22/21 A2988 RMK AO2 TSNO T02210214
KGVT 151155Z AUTO 20011G15KT 7SM BR OVC004 22/21 A2988 RMK AO2 TSNO T02200214 10220 20198 70001
KGVT 151135Z AUTO 20008KT 7SM OVC004 22/21 A2988 RMK AO2 TSNO T02190214
KGVT 151115Z AUTO 20007KT 10SM OVC006 22/21 A2987 RMK AO2 TSNO T02170212
KGVT 151055Z AUTO 19005KT 10SM BKN008 21/20 A2986 RMK AO2 TSNO T02070203
KGVT 151035Z AUTO 17004KT 10SM CLR 20/20 A2986 RMK AO2 TSNO T02000196
KGVT 151015Z AUTO 18004KT 10SM CLR 20/20 A2986 RMK AO2 TSNO T02040199
KGVT 150955Z AUTO 19004KT 10SM CLR 21/20 A2985 RMK AO2 TSNO T02090202
KGVT 150935Z AUTO 17006KT 10SM CLR 21/20 A2984 RMK AO2 TSNO T02110203
KGVT 150915Z AUTO 21006KT 10SM CLR 22/21 A2984 RMK AO2 TSNO T02160205
KGVT 150855Z AUTO 21006KT 10SM CLR 22/21 A2984 RMK AO2 TSNO T02170206
KGVT 150835Z AUTO 15010KT 10SM CLR 22/21 A2983 RMK AO2 TSNO T02160206
KGVT 150815Z AUTO 16010KT 10SM CLR 22/21 A2984 RMK AO2 TSNO T02150206
KGVT 150755Z AUTO 16009KT 10SM CLR 22/21 A2984 RMK AO2 TSNO T02170207
KGVT 150735Z AUTO 16008KT 10SM CLR 22/21 A2985 RMK AO2 TSNO T02160208
KGVT 150715Z AUTO 15009KT 10SM CLR 21/21 A2984 RMK AO2 TSNO T02120206
KGVT 150655Z AUTO 16006KT 10SM CLR 21/21 A2985 RMK AO2 TSNO T02100205
KGVT 150635Z AUTO 15006KT 10SM CLR 21/20 A2985 RMK AO2 TSNO T02070203
KGVT 150615Z AUTO 15006KT 10SM CLR 21/20 A2985 RMK AO2 TSNO T02080204
KGVT 150555Z AUTO 15005KT 10SM CLR 20/20 A2986 RMK AO2 TSNO T02020198 10247 20200
KGVT 150535Z AUTO 15005KT 10SM CLR 20/20 A2987 RMK AO2 TSNO T02020197
KGVT 150515Z AUTO 15004KT 10SM CLR 21/20 A2987 RMK AO2 TSNO T02060200